sensor_id;sensor_type;location;lat;lon;timestamp;temperature;humidity
44886;DHT22;36669;51.428;21.162;2022-10-13T00:00:41;3.50;99.90
44886;DHT22;36669;51.428;21.162;2022-10-13T00:03:08;3.30;99.90
44886;DHT22;36669;51.428;21.162;2022-10-13T00:05:45;3.30;99.90
44886;DHT22;36669;51.428;21.162;2022-10-13T00:08:16;3.40;99.90
44886;DHT22;36669;51.428;21.162;2022-10-13T00:10:43;3.40;99.90
44886;DHT22;36669;51.428;21.162;2022-10-13T00:13:09;3.40;99.90
44886;DHT22;36669;51.428;21.162;2022-10-13T00:15:45;3.30;99.90
44886;DHT22;36669;51.428;21.162;2022-10-13T00:18:18;3.20;99.90
44886;DHT22;36669;51.428;21.162;2022-10-13T00:20:47;3.10;99.90
44886;DHT22;36669;51.428;21.162;2022-10-13T00:23:16;3.00;99.90
44886;DHT22;36669;51.428;21.162;2022-10-13T00:25:47;2.90;99.90
44886;DHT22;36669;51.428;21.162;2022-10-13T00:28:17;2.80;99.90
44886;DHT22;36669;51.428;21.162;2022-10-13T00:30:42;2.80;99.90
44886;DHT22;36669;51.428;21.162;2022-10-13T00:33:10;2.70;99.90
44886;DHT22;36669;51.428;21.162;2022-10-13T00:35:44;2.70;99.90
44886;DHT22;36669;51.428;21.162;2022-10-13T00:38:12;2.70;99.90
44886;DHT22;36669;51.428;21.162;2022-10-13T00:40:57;2.60;99.90
44886;DHT22;36669;51.428;21.162;2022-10-13T00:43:47;2.60;99.90
44886;DHT22;36669;51.428;21.162;2022-10-13T00:46:14;2.50;99.90
44886;DHT22;36669;51.428;21.162;2022-10-13T00:48:40;2.60;99.90
44886;DHT22;36669;51.428;21.162;2022-10-13T00:51:07;2.60;99.90
44886;DHT22;36669;51.428;21.162;2022-10-13T00:53:35;2.60;99.90
44886;DHT22;36669;51.428;21.162;2022-10-13T00:56:02;2.60;99.90
44886;DHT22;36669;51.428;21.162;2022-10-13T00:58:29;2.70;99.90
44886;DHT22;36669;51.428;21.162;2022-10-13T01:00:54;2.70;99.90
44886;DHT22;36669;51.428;21.162;2022-10-13T01:03:21;2.80;99.90
44886;DHT22;36669;51.428;21.162;2022-10-13T01:05:50;3.00;99.90
44886;DHT22;36669;51.428;21.162;2022-10-13T01:08:18;3.00;99.90
44886;DHT22;36669;51.428;21.162;2022-10-13T01:32:01;3.00;99.90
44886;DHT22;36669;51.428;21.162;2022-10-13T01:35:27;3.00;99.90
44886;DHT22;36669;51.428;21.162;2022-10-13T01:40:57;2.70;99.90
44886;DHT22;36669;51.428;21.162;2022-10-13T01:43:34;2.50;99.90
44886;DHT22;36669;51.428;21.162;2022-10-13T01:46:02;2.50;99.90
44886;DHT22;36669;51.428;21.162;2022-10-13T01:48:30;2.50;99.90
44886;DHT22;36669;51.428;21.162;2022-10-13T01:50:57;2.50;99.90
44886;DHT22;36669;51.428;21.162;2022-10-13T01:53:24;2.50;99.90
44886;DHT22;36669;51.428;21.162;2022-10-13T01:55:57;2.50;99.90
44886;DHT22;36669;51.428;21.162;2022-10-13T01:58:27;2.50;99.90
44886;DHT22;36669;51.428;21.162;2022-10-13T02:01:28;2.50;99.90
44886;DHT22;36669;51.428;21.162;2022-10-13T02:06:59;2.80;99.90
44886;DHT22;36669;51.428;21.162;2022-10-13T02:12:37;3.10;99.90
44886;DHT22;36669;51.428;21.162;2022-10-13T02:15:07;3.20;99.90
44886;DHT22;36669;51.428;21.162;2022-10-13T02:17:35;3.10;99.90
44886;DHT22;36669;51.428;21.162;2022-10-13T02:20:04;3.10;99.90
44886;DHT22;36669;51.428;21.162;2022-10-13T02:22:35;3.10;99.90
44886;DHT22;36669;51.428;21.162;2022-10-13T02:25:02;3.10;99.90
44886;DHT22;36669;51.428;21.162;2022-10-13T02:27:28;3.10;99.90
44886;DHT22;36669;51.428;21.162;2022-10-13T02:29:56;3.10;99.90
44886;DHT22;36669;51.428;21.162;2022-10-13T02:32:22;3.00;99.90
44886;DHT22;36669;51.428;21.162;2022-10-13T02:34:49;3.00;99.90
44886;DHT22;36669;51.428;21.162;2022-10-13T02:37:16;3.00;99.90
44886;DHT22;36669;51.428;21.162;2022-10-13T02:39:43;3.00;99.90
44886;DHT22;36669;51.428;21.162;2022-10-13T02:42:08;2.80;99.90
44886;DHT22;36669;51.428;21.162;2022-10-13T02:44:35;2.70;99.90
44886;DHT22;36669;51.428;21.162;2022-10-13T02:47:02;2.50;99.90
44886;DHT22;36669;51.428;21.162;2022-10-13T02:49:29;2.40;99.90
44886;DHT22;36669;51.428;21.162;2022-10-13T02:51:56;2.30;99.90
44886;DHT22;36669;51.428;21.162;2022-10-13T02:54:22;2.20;99.90
44886;DHT22;36669;51.428;21.162;2022-10-13T02:56:49;2.10;99.90
44886;DHT22;36669;51.428;21.162;2022-10-13T02:59:16;2.00;99.90
44886;DHT22;36669;51.428;21.162;2022-10-13T03:01:42;1.90;99.90
44886;DHT22;36669;51.428;21.162;2022-10-13T03:04:08;1.80;99.90
44886;DHT22;36669;51.428;21.162;2022-10-13T03:06:33;1.80;99.90
44886;DHT22;36669;51.428;21.162;2022-10-13T03:08:59;1.80;99.90
44886;DHT22;36669;51.428;21.162;2022-10-13T03:11:24;1.80;99.90
44886;DHT22;36669;51.428;21.162;2022-10-13T03:13:50;1.80;99.90
44886;DHT22;36669;51.428;21.162;2022-10-13T03:16:17;1.70;99.90
44886;DHT22;36669;51.428;21.162;2022-10-13T03:18:43;1.70;99.90
44886;DHT22;36669;51.428;21.162;2022-10-13T03:21:09;1.70;99.90
44886;DHT22;36669;51.428;21.162;2022-10-13T03:23:36;1.70;99.90
44886;DHT22;36669;51.428;21.162;2022-10-13T03:26:02;1.60;99.90
44886;DHT22;36669;51.428;21.162;2022-10-13T03:28:28;1.60;99.90
44886;DHT22;36669;51.428;21.162;2022-10-13T03:31:06;1.60;99.90
44886;DHT22;36669;51.428;21.162;2022-10-13T03:33:32;1.60;99.90
44886;DHT22;36669;51.428;21.162;2022-10-13T03:36:02;1.60;99.90
44886;DHT22;36669;51.428;21.162;2022-10-13T03:38:29;1.60;99.90
44886;DHT22;36669;51.428;21.162;2022-10-13T03:40:55;1.50;99.90
44886;DHT22;36669;51.428;21.162;2022-10-13T03:43:24;1.50;99.90
44886;DHT22;36669;51.428;21.162;2022-10-13T03:45:57;1.50;99.90
44886;DHT22;36669;51.428;21.162;2022-10-13T03:48:23;1.50;99.90
44886;DHT22;36669;51.428;21.162;2022-10-13T03:50:50;1.40;99.90
44886;DHT22;36669;51.428;21.162;2022-10-13T03:53:16;1.40;99.90
44886;DHT22;36669;51.428;21.162;2022-10-13T03:55:48;1.30;99.90
44886;DHT22;36669;51.428;21.162;2022-10-13T03:58:14;1.30;99.90
44886;DHT22;36669;51.428;21.162;2022-10-13T04:00:39;1.30;99.90
44886;DHT22;36669;51.428;21.162;2022-10-13T04:03:05;1.30;99.90
44886;DHT22;36669;51.428;21.162;2022-10-13T04:05:33;1.30;99.90
44886;DHT22;36669;51.428;21.162;2022-10-13T04:07:59;1.30;99.90
44886;DHT22;36669;51.428;21.162;2022-10-13T04:10:26;1.40;99.90
44886;DHT22;36669;51.428;21.162;2022-10-13T04:12:53;1.40;99.90
44886;DHT22;36669;51.428;21.162;2022-10-13T04:15:18;1.50;99.90
44886;DHT22;36669;51.428;21.162;2022-10-13T04:17:45;1.60;99.90
44886;DHT22;36669;51.428;21.162;2022-10-13T04:20:11;1.60;99.90
44886;DHT22;36669;51.428;21.162;2022-10-13T04:22:39;1.70;99.90
44886;DHT22;36669;51.428;21.162;2022-10-13T04:25:05;1.60;99.90
44886;DHT22;36669;51.428;21.162;2022-10-13T04:27:32;1.60;99.90
44886;DHT22;36669;51.428;21.162;2022-10-13T04:29:59;1.50;99.90
44886;DHT22;36669;51.428;21.162;2022-10-13T04:32:26;1.50;99.90
44886;DHT22;36669;51.428;21.162;2022-10-13T04:34:53;1.50;99.90
44886;DHT22;36669;51.428;21.162;2022-10-13T04:37:19;1.50;99.90
44886;DHT22;36669;51.428;21.162;2022-10-13T04:39:46;1.50;99.90
44886;DHT22;36669;51.428;21.162;2022-10-13T04:42:12;1.70;99.90
44886;DHT22;36669;51.428;21.162;2022-10-13T04:44:37;1.70;99.90
44886;DHT22;36669;51.428;21.162;2022-10-13T04:47:03;1.70;99.90
44886;DHT22;36669;51.428;21.162;2022-10-13T04:49:28;1.80;99.90
44886;DHT22;36669;51.428;21.162;2022-10-13T04:51:55;1.90;99.90
44886;DHT22;36669;51.428;21.162;2022-10-13T04:54:22;2.00;99.90
44886;DHT22;36669;51.428;21.162;2022-10-13T04:56:49;2.00;99.90
44886;DHT22;36669;51.428;21.162;2022-10-13T04:59:16;1.90;99.90
44886;DHT22;36669;51.428;21.162;2022-10-13T05:01:42;1.80;99.90
44886;DHT22;36669;51.428;21.162;2022-10-13T05:04:10;1.80;99.90
44886;DHT22;36669;51.428;21.162;2022-10-13T05:06:39;1.80;99.90
44886;DHT22;36669;51.428;21.162;2022-10-13T05:09:06;1.70;99.90
44886;DHT22;36669;51.428;21.162;2022-10-13T05:11:32;1.70;99.90
44886;DHT22;36669;51.428;21.162;2022-10-13T05:14:00;1.70;99.90
44886;DHT22;36669;51.428;21.162;2022-10-13T05:16:26;1.80;99.90
44886;DHT22;36669;51.428;21.162;2022-10-13T05:18:53;1.80;99.90
44886;DHT22;36669;51.428;21.162;2022-10-13T05:21:24;1.80;99.90
44886;DHT22;36669;51.428;21.162;2022-10-13T05:23:52;1.80;99.90
44886;DHT22;36669;51.428;21.162;2022-10-13T05:26:19;1.90;99.90
44886;DHT22;36669;51.428;21.162;2022-10-13T05:28:46;1.90;99.90
44886;DHT22;36669;51.428;21.162;2022-10-13T05:31:15;1.90;99.90
44886;DHT22;36669;51.428;21.162;2022-10-13T05:33:42;1.90;99.90
44886;DHT22;36669;51.428;21.162;2022-10-13T05:36:16;1.90;99.90
44886;DHT22;36669;51.428;21.162;2022-10-13T05:38:42;2.00;99.90
44886;DHT22;36669;51.428;21.162;2022-10-13T05:41:10;2.00;99.90
44886;DHT22;36669;51.428;21.162;2022-10-13T05:43:40;2.10;99.90
44886;DHT22;36669;51.428;21.162;2022-10-13T05:46:06;2.20;99.90
44886;DHT22;36669;51.428;21.162;2022-10-13T05:48:32;2.30;99.90
44886;DHT22;36669;51.428;21.162;2022-10-13T05:51:02;2.40;99.90
44886;DHT22;36669;51.428;21.162;2022-10-13T05:53:33;2.50;99.90
44886;DHT22;36669;51.428;21.162;2022-10-13T05:56:03;2.60;99.90
44886;DHT22;36669;51.428;21.162;2022-10-13T05:58:39;2.70;99.90
44886;DHT22;36669;51.428;21.162;2022-10-13T06:01:09;2.80;99.90
44886;DHT22;36669;51.428;21.162;2022-10-13T06:03:36;3.00;99.90
44886;DHT22;36669;51.428;21.162;2022-10-13T06:06:03;3.10;99.90
44886;DHT22;36669;51.428;21.162;2022-10-13T06:08:29;3.20;99.90
44886;DHT22;36669;51.428;21.162;2022-10-13T06:10:57;3.40;99.90
44886;DHT22;36669;51.428;21.162;2022-10-13T06:13:22;3.50;99.90
44886;DHT22;36669;51.428;21.162;2022-10-13T06:15:49;3.60;99.90
44886;DHT22;36669;51.428;21.162;2022-10-13T06:18:16;3.70;99.90
44886;DHT22;36669;51.428;21.162;2022-10-13T06:20:42;3.80;99.90
44886;DHT22;36669;51.428;21.162;2022-10-13T06:23:08;3.90;99.90
44886;DHT22;36669;51.428;21.162;2022-10-13T06:25:35;4.00;99.90
44886;DHT22;36669;51.428;21.162;2022-10-13T06:28:00;4.10;99.90
44886;DHT22;36669;51.428;21.162;2022-10-13T06:30:26;4.20;99.90
44886;DHT22;36669;51.428;21.162;2022-10-13T06:32:55;4.40;99.90
44886;DHT22;36669;51.428;21.162;2022-10-13T06:35:23;4.50;99.90
44886;DHT22;36669;51.428;21.162;2022-10-13T06:37:49;4.70;99.90
44886;DHT22;36669;51.428;21.162;2022-10-13T06:40:15;4.90;99.90
44886;DHT22;36669;51.428;21.162;2022-10-13T06:42:41;5.00;99.90
44886;DHT22;36669;51.428;21.162;2022-10-13T06:45:08;5.10;99.90
44886;DHT22;36669;51.428;21.162;2022-10-13T06:47:34;5.30;99.90
44886;DHT22;36669;51.428;21.162;2022-10-13T06:50:00;5.40;99.90
44886;DHT22;36669;51.428;21.162;2022-10-13T06:52:27;5.50;99.90
44886;DHT22;36669;51.428;21.162;2022-10-13T06:54:53;5.60;99.90
44886;DHT22;36669;51.428;21.162;2022-10-13T06:57:21;5.80;99.90
44886;DHT22;36669;51.428;21.162;2022-10-13T06:59:48;5.90;99.90
44886;DHT22;36669;51.428;21.162;2022-10-13T07:02:15;6.00;99.90
44886;DHT22;36669;51.428;21.162;2022-10-13T07:04:41;6.20;99.90
44886;DHT22;36669;51.428;21.162;2022-10-13T07:07:08;6.30;99.90
44886;DHT22;36669;51.428;21.162;2022-10-13T07:09:35;6.50;99.90
44886;DHT22;36669;51.428;21.162;2022-10-13T07:12:02;6.60;99.90
44886;DHT22;36669;51.428;21.162;2022-10-13T07:14:29;6.80;99.90
44886;DHT22;36669;51.428;21.162;2022-10-13T07:16:57;6.90;99.90
44886;DHT22;36669;51.428;21.162;2022-10-13T07:19:24;7.10;99.90
44886;DHT22;36669;51.428;21.162;2022-10-13T07:21:51;7.30;99.90
44886;DHT22;36669;51.428;21.162;2022-10-13T07:24:17;7.50;99.90
44886;DHT22;36669;51.428;21.162;2022-10-13T07:26:44;7.70;99.90
44886;DHT22;36669;51.428;21.162;2022-10-13T07:29:12;7.90;99.90
44886;DHT22;36669;51.428;21.162;2022-10-13T07:31:38;8.20;99.90
44886;DHT22;36669;51.428;21.162;2022-10-13T07:34:05;8.40;99.90
44886;DHT22;36669;51.428;21.162;2022-10-13T07:36:31;8.60;99.90
44886;DHT22;36669;51.428;21.162;2022-10-13T07:38:59;8.90;99.90
44886;DHT22;36669;51.428;21.162;2022-10-13T07:41:25;9.10;99.90
44886;DHT22;36669;51.428;21.162;2022-10-13T07:43:55;9.30;99.90
44886;DHT22;36669;51.428;21.162;2022-10-13T07:46:21;9.50;99.90
44886;DHT22;36669;51.428;21.162;2022-10-13T07:48:50;9.70;99.90
44886;DHT22;36669;51.428;21.162;2022-10-13T07:51:18;9.90;99.90
44886;DHT22;36669;51.428;21.162;2022-10-13T07:53:45;10.00;99.90
44886;DHT22;36669;51.428;21.162;2022-10-13T07:56:14;10.20;99.90
44886;DHT22;36669;51.428;21.162;2022-10-13T07:58:43;10.30;99.90
44886;DHT22;36669;51.428;21.162;2022-10-13T08:01:11;10.40;99.90
44886;DHT22;36669;51.428;21.162;2022-10-13T08:03:36;10.60;99.90
44886;DHT22;36669;51.428;21.162;2022-10-13T08:06:03;10.70;99.90
44886;DHT22;36669;51.428;21.162;2022-10-13T08:08:30;10.90;99.90
44886;DHT22;36669;51.428;21.162;2022-10-13T08:11:01;11.00;99.90
44886;DHT22;36669;51.428;21.162;2022-10-13T08:13:28;11.00;99.90
44886;DHT22;36669;51.428;21.162;2022-10-13T08:15:59;11.20;99.90
44886;DHT22;36669;51.428;21.162;2022-10-13T08:18:28;11.20;99.90
44886;DHT22;36669;51.428;21.162;2022-10-13T08:20:58;11.30;99.90
44886;DHT22;36669;51.428;21.162;2022-10-13T08:23:24;11.30;99.90
44886;DHT22;36669;51.428;21.162;2022-10-13T08:25:50;11.40;99.90
44886;DHT22;36669;51.428;21.162;2022-10-13T08:28:20;11.40;99.90
44886;DHT22;36669;51.428;21.162;2022-10-13T08:30:48;11.50;99.90
44886;DHT22;36669;51.428;21.162;2022-10-13T08:33:14;11.60;99.90
44886;DHT22;36669;51.428;21.162;2022-10-13T08:35:39;11.70;99.90
44886;DHT22;36669;51.428;21.162;2022-10-13T08:38:05;11.70;99.90
44886;DHT22;36669;51.428;21.162;2022-10-13T08:40:30;11.80;99.90
44886;DHT22;36669;51.428;21.162;2022-10-13T08:42:57;11.90;99.90
44886;DHT22;36669;51.428;21.162;2022-10-13T08:45:27;12.10;99.90
44886;DHT22;36669;51.428;21.162;2022-10-13T08:47:59;12.20;99.90
44886;DHT22;36669;51.428;21.162;2022-10-13T08:50:30;12.30;99.90
44886;DHT22;36669;51.428;21.162;2022-10-13T08:53:06;12.20;99.90
44886;DHT22;36669;51.428;21.162;2022-10-13T08:55:53;12.30;99.90
44886;DHT22;36669;51.428;21.162;2022-10-13T08:58:26;12.40;99.90
44886;DHT22;36669;51.428;21.162;2022-10-13T09:01:33;12.40;99.90
44886;DHT22;36669;51.428;21.162;2022-10-13T09:06:47;12.70;99.90
44886;DHT22;36669;51.428;21.162;2022-10-13T09:09:15;12.60;99.90
44886;DHT22;36669;51.428;21.162;2022-10-13T09:11:44;12.70;99.90
44886;DHT22;36669;51.428;21.162;2022-10-13T09:14:22;12.80;99.90
44886;DHT22;36669;51.428;21.162;2022-10-13T09:16:51;12.90;99.90
44886;DHT22;36669;51.428;21.162;2022-10-13T09:19:28;13.00;99.90
44886;DHT22;36669;51.428;21.162;2022-10-13T09:21:57;13.20;99.90
44886;DHT22;36669;51.428;21.162;2022-10-13T09:24:25;13.30;99.90
44886;DHT22;36669;51.428;21.162;2022-10-13T09:27:14;13.40;99.90
44886;DHT22;36669;51.428;21.162;2022-10-13T09:29:42;13.60;99.90
44886;DHT22;36669;51.428;21.162;2022-10-13T09:32:14;13.60;99.90
44886;DHT22;36669;51.428;21.162;2022-10-13T09:34:40;13.80;99.90
44886;DHT22;36669;51.428;21.162;2022-10-13T09:37:17;14.00;99.90
44886;DHT22;36669;51.428;21.162;2022-10-13T09:39:43;14.20;99.90
44886;DHT22;36669;51.428;21.162;2022-10-13T09:42:29;14.30;99.90
44886;DHT22;36669;51.428;21.162;2022-10-13T09:45:21;14.50;99.90
44886;DHT22;36669;51.428;21.162;2022-10-13T09:48:05;14.60;99.90
44886;DHT22;36669;51.428;21.162;2022-10-13T09:50:33;14.70;99.90
44886;DHT22;36669;51.428;21.162;2022-10-13T09:55:49;15.10;99.90
44886;DHT22;36669;51.428;21.162;2022-10-13T09:58:34;15.40;99.90
44886;DHT22;36669;51.428;21.162;2022-10-13T10:01:01;15.50;99.90
44886;DHT22;36669;51.428;21.162;2022-10-13T10:03:36;15.70;99.90
44886;DHT22;36669;51.428;21.162;2022-10-13T10:06:05;15.70;99.90
44886;DHT22;36669;51.428;21.162;2022-10-13T10:08:52;15.70;99.90
44886;DHT22;36669;51.428;21.162;2022-10-13T10:11:28;15.80;99.90
44886;DHT22;36669;51.428;21.162;2022-10-13T10:13:56;15.90;99.90
44886;DHT22;36669;51.428;21.162;2022-10-13T10:16:56;15.70;99.90
44886;DHT22;36669;51.428;21.162;2022-10-13T10:19:25;15.70;99.90
44886;DHT22;36669;51.428;21.162;2022-10-13T10:22:22;15.80;99.90
44886;DHT22;36669;51.428;21.162;2022-10-13T10:30:33;16.00;99.90
44886;DHT22;36669;51.428;21.162;2022-10-13T10:33:10;15.60;99.90
44886;DHT22;36669;51.428;21.162;2022-10-13T10:35:51;15.90;99.90
44886;DHT22;36669;51.428;21.162;2022-10-13T10:38:41;16.20;99.90
44886;DHT22;36669;51.428;21.162;2022-10-13T10:41:12;16.00;99.90
44886;DHT22;36669;51.428;21.162;2022-10-13T10:43:55;16.20;99.90
44886;DHT22;36669;51.428;21.162;2022-10-13T10:46:28;16.30;99.90
44886;DHT22;36669;51.428;21.162;2022-10-13T10:48:58;16.40;99.90
44886;DHT22;36669;51.428;21.162;2022-10-13T10:51:29;16.40;99.90
44886;DHT22;36669;51.428;21.162;2022-10-13T10:55:05;16.60;99.90
44886;DHT22;36669;51.428;21.162;2022-10-13T10:59:46;17.20;99.90
44886;DHT22;36669;51.428;21.162;2022-10-13T11:04:48;17.10;99.90
44886;DHT22;36669;51.428;21.162;2022-10-13T11:15:29;17.70;99.90
44886;DHT22;36669;51.428;21.162;2022-10-13T11:17:56;17.60;99.00
44886;DHT22;36669;51.428;21.162;2022-10-13T11:27:59;17.90;96.60
44886;DHT22;36669;51.428;21.162;2022-10-13T11:30:43;17.70;96.10
44886;DHT22;36669;51.428;21.162;2022-10-13T11:33:32;17.30;97.00
44886;DHT22;36669;51.428;21.162;2022-10-13T11:36:31;17.60;97.20
44886;DHT22;36669;51.428;21.162;2022-10-13T11:41:44;18.10;97.40
44886;DHT22;36669;51.428;21.162;2022-10-13T11:50:03;18.50;94.50
44886;DHT22;36669;51.428;21.162;2022-10-13T11:58:31;18.50;94.50
44886;DHT22;36669;51.428;21.162;2022-10-13T12:01:04;18.90;95.00
44886;DHT22;36669;51.428;21.162;2022-10-13T12:03:36;18.70;93.60
44886;DHT22;36669;51.428;21.162;2022-10-13T12:06:04;18.50;94.30
44886;DHT22;36669;51.428;21.162;2022-10-13T12:08:33;18.40;94.10
44886;DHT22;36669;51.428;21.162;2022-10-13T12:11:00;18.60;93.90
44886;DHT22;36669;51.428;21.162;2022-10-13T12:13:29;18.40;94.20
44886;DHT22;36669;51.428;21.162;2022-10-13T12:16:03;18.60;93.80
44886;DHT22;36669;51.428;21.162;2022-10-13T12:18:32;18.50;93.90
44886;DHT22;36669;51.428;21.162;2022-10-13T12:21:00;18.80;93.30
44886;DHT22;36669;51.428;21.162;2022-10-13T12:23:27;19.40;93.00
44886;DHT22;36669;51.428;21.162;2022-10-13T12:25:53;19.20;91.90
44886;DHT22;36669;51.428;21.162;2022-10-13T12:28:20;19.20;92.40
44886;DHT22;36669;51.428;21.162;2022-10-13T12:30:54;19.40;91.00
44886;DHT22;36669;51.428;21.162;2022-10-13T12:33:27;19.50;90.60
44886;DHT22;36669;51.428;21.162;2022-10-13T12:35:53;19.60;90.60
44886;DHT22;36669;51.428;21.162;2022-10-13T12:38:20;19.70;90.60
44886;DHT22;36669;51.428;21.162;2022-10-13T12:40:50;19.60;90.00
44886;DHT22;36669;51.428;21.162;2022-10-13T12:43:19;19.80;89.60
44886;DHT22;36669;51.428;21.162;2022-10-13T12:45:46;19.70;90.00
44886;DHT22;36669;51.428;21.162;2022-10-13T12:48:32;19.90;88.30
44886;DHT22;36669;51.428;21.162;2022-10-13T12:51:16;19.80;87.90
44886;DHT22;36669;51.428;21.162;2022-10-13T12:53:43;19.50;88.40
44886;DHT22;36669;51.428;21.162;2022-10-13T12:56:21;19.50;89.90
44886;DHT22;36669;51.428;21.162;2022-10-13T12:58:49;19.40;87.60
44886;DHT22;36669;51.428;21.162;2022-10-13T13:01:35;20.00;87.10
44886;DHT22;36669;51.428;21.162;2022-10-13T13:07:02;19.80;85.20
44886;DHT22;36669;51.428;21.162;2022-10-13T13:09:33;19.50;87.60
44886;DHT22;36669;51.428;21.162;2022-10-13T13:14:41;20.10;87.80
44886;DHT22;36669;51.428;21.162;2022-10-13T13:19:37;20.10;86.50
44886;DHT22;36669;51.428;21.162;2022-10-13T13:22:04;19.90;86.30
44886;DHT22;36669;51.428;21.162;2022-10-13T13:24:30;19.80;86.30
44886;DHT22;36669;51.428;21.162;2022-10-13T13:26:55;19.60;86.70
44886;DHT22;36669;51.428;21.162;2022-10-13T13:29:21;19.00;87.20
44886;DHT22;36669;51.428;21.162;2022-10-13T13:31:46;19.20;88.00
44886;DHT22;36669;51.428;21.162;2022-10-13T13:34:12;19.40;87.20
44886;DHT22;36669;51.428;21.162;2022-10-13T13:36:37;19.90;87.50
44886;DHT22;36669;51.428;21.162;2022-10-13T13:39:04;20.30;85.90
44886;DHT22;36669;51.428;21.162;2022-10-13T13:41:30;20.30;85.30
44886;DHT22;36669;51.428;21.162;2022-10-13T13:43:56;20.10;84.30
44886;DHT22;36669;51.428;21.162;2022-10-13T13:46:25;19.80;86.40
44886;DHT22;36669;51.428;21.162;2022-10-13T13:48:52;20.00;84.00
44886;DHT22;36669;51.428;21.162;2022-10-13T13:51:19;19.90;84.20
44886;DHT22;36669;51.428;21.162;2022-10-13T13:53:46;20.10;84.70
44886;DHT22;36669;51.428;21.162;2022-10-13T13:56:17;20.30;83.10
44886;DHT22;36669;51.428;21.162;2022-10-13T13:58:43;20.50;82.80
44886;DHT22;36669;51.428;21.162;2022-10-13T14:01:11;20.90;82.40
44886;DHT22;36669;51.428;21.162;2022-10-13T14:03:38;21.30;81.20
44886;DHT22;36669;51.428;21.162;2022-10-13T14:06:05;21.10;81.80
44886;DHT22;36669;51.428;21.162;2022-10-13T14:08:31;21.00;80.50
44886;DHT22;36669;51.428;21.162;2022-10-13T14:10:57;20.50;81.00
44886;DHT22;36669;51.428;21.162;2022-10-13T14:13:22;20.60;82.60
44886;DHT22;36669;51.428;21.162;2022-10-13T14:15:58;20.50;81.30
44886;DHT22;36669;51.428;21.162;2022-10-13T14:18:24;20.80;80.60
44886;DHT22;36669;51.428;21.162;2022-10-13T14:20:51;20.70;79.80
44886;DHT22;36669;51.428;21.162;2022-10-13T14:23:17;20.90;80.00
44886;DHT22;36669;51.428;21.162;2022-10-13T14:25:42;20.60;79.70
44886;DHT22;36669;51.428;21.162;2022-10-13T14:28:08;20.40;81.00
44886;DHT22;36669;51.428;21.162;2022-10-13T14:30:33;20.60;80.20
44886;DHT22;36669;51.428;21.162;2022-10-13T14:32:59;20.90;79.70
44886;DHT22;36669;51.428;21.162;2022-10-13T14:35:25;21.00;79.60
44886;DHT22;36669;51.428;21.162;2022-10-13T14:37:50;21.30;79.50
44886;DHT22;36669;51.428;21.162;2022-10-13T14:40:16;21.10;78.30
44886;DHT22;36669;51.428;21.162;2022-10-13T14:42:41;20.80;78.20
44886;DHT22;36669;51.428;21.162;2022-10-13T14:45:08;20.90;78.90
44886;DHT22;36669;51.428;21.162;2022-10-13T14:47:33;20.60;78.80
44886;DHT22;36669;51.428;21.162;2022-10-13T14:49:59;20.80;79.90
44886;DHT22;36669;51.428;21.162;2022-10-13T14:52:24;19.80;80.20
44886;DHT22;36669;51.428;21.162;2022-10-13T14:54:50;19.90;81.60
44886;DHT22;36669;51.428;21.162;2022-10-13T14:57:15;20.30;80.90
44886;DHT22;36669;51.428;21.162;2022-10-13T14:59:41;20.50;80.10
44886;DHT22;36669;51.428;21.162;2022-10-13T15:02:11;20.50;79.80
44886;DHT22;36669;51.428;21.162;2022-10-13T15:04:36;20.60;79.10
44886;DHT22;36669;51.428;21.162;2022-10-13T15:07:02;20.50;79.70
44886;DHT22;36669;51.428;21.162;2022-10-13T15:09:27;20.50;79.60
44886;DHT22;36669;51.428;21.162;2022-10-13T15:11:53;20.10;80.00
44886;DHT22;36669;51.428;21.162;2022-10-13T15:14:18;20.30;80.40
44886;DHT22;36669;51.428;21.162;2022-10-13T15:16:45;20.40;80.00
44886;DHT22;36669;51.428;21.162;2022-10-13T15:19:11;20.20;80.30
44886;DHT22;36669;51.428;21.162;2022-10-13T15:21:36;19.50;81.60
44886;DHT22;36669;51.428;21.162;2022-10-13T15:24:02;19.40;83.60
44886;DHT22;36669;51.428;21.162;2022-10-13T15:26:27;19.10;83.60
44886;DHT22;36669;51.428;21.162;2022-10-13T15:28:53;18.60;85.50
44886;DHT22;36669;51.428;21.162;2022-10-13T15:31:20;18.20;87.00
44886;DHT22;36669;51.428;21.162;2022-10-13T15:33:48;17.80;88.10
44886;DHT22;36669;51.428;21.162;2022-10-13T15:36:13;17.40;89.10
44886;DHT22;36669;51.428;21.162;2022-10-13T15:38:39;17.00;90.20
44886;DHT22;36669;51.428;21.162;2022-10-13T15:41:05;16.70;91.00
44886;DHT22;36669;51.428;21.162;2022-10-13T15:43:31;16.30;91.90
44886;DHT22;36669;51.428;21.162;2022-10-13T15:46:05;15.80;92.70
44886;DHT22;36669;51.428;21.162;2022-10-13T15:48:32;15.40;94.00
44886;DHT22;36669;51.428;21.162;2022-10-13T15:50:58;15.10;94.60
44886;DHT22;36669;51.428;21.162;2022-10-13T15:53:23;14.80;95.60
44886;DHT22;36669;51.428;21.162;2022-10-13T15:55:49;14.50;96.80
44886;DHT22;36669;51.428;21.162;2022-10-13T15:58:15;14.30;97.80
44886;DHT22;36669;51.428;21.162;2022-10-13T16:00:43;14.00;99.40
44886;DHT22;36669;51.428;21.162;2022-10-13T16:03:16;13.70;99.90
44886;DHT22;36669;51.428;21.162;2022-10-13T16:05:43;13.50;99.90
44886;DHT22;36669;51.428;21.162;2022-10-13T16:08:09;13.30;99.90
44886;DHT22;36669;51.428;21.162;2022-10-13T16:10:40;13.10;99.90
44886;DHT22;36669;51.428;21.162;2022-10-13T16:13:07;13.00;99.90
44886;DHT22;36669;51.428;21.162;2022-10-13T16:15:32;12.90;99.90
44886;DHT22;36669;51.428;21.162;2022-10-13T16:17:58;12.80;99.90
44886;DHT22;36669;51.428;21.162;2022-10-13T16:20:25;12.70;99.90
44886;DHT22;36669;51.428;21.162;2022-10-13T16:22:52;12.50;99.90
44886;DHT22;36669;51.428;21.162;2022-10-13T16:25:19;12.40;99.90
44886;DHT22;36669;51.428;21.162;2022-10-13T16:27:45;12.20;99.90
44886;DHT22;36669;51.428;21.162;2022-10-13T16:30:10;12.00;99.90
44886;DHT22;36669;51.428;21.162;2022-10-13T16:32:37;12.00;99.90
44886;DHT22;36669;51.428;21.162;2022-10-13T16:35:03;11.90;99.90
44886;DHT22;36669;51.428;21.162;2022-10-13T16:37:29;11.90;99.90
44886;DHT22;36669;51.428;21.162;2022-10-13T16:39:55;11.80;99.90
44886;DHT22;36669;51.428;21.162;2022-10-13T16:42:20;11.70;99.90
44886;DHT22;36669;51.428;21.162;2022-10-13T16:44:46;11.60;99.90
44886;DHT22;36669;51.428;21.162;2022-10-13T16:47:11;11.50;99.90
44886;DHT22;36669;51.428;21.162;2022-10-13T16:49:37;11.30;99.90
44886;DHT22;36669;51.428;21.162;2022-10-13T16:52:03;11.20;99.90
44886;DHT22;36669;51.428;21.162;2022-10-13T16:54:30;11.10;99.90
44886;DHT22;36669;51.428;21.162;2022-10-13T16:56:56;10.90;99.90
44886;DHT22;36669;51.428;21.162;2022-10-13T16:59:21;10.80;99.90